Terminal Aerodrome Forecast
Issued by NWS

Home | Current Version | Previous Version | Text Only | Print | Product List | Glossary On
Versions: 1 2 3 4 5 6 7 8 9 10 11 12 13 14 15 16 17
634
FTUS43 KMPX 071726
TAFAXN
TAF
KAXN 071726Z 0718/0818 29020G30KT 3SM -SN BLSN VV012
      TEMPO 0718/0722 1SM -SN BLSN
     FM081500 32018G24KT P6SM -SN OVC015=

USA.gov is the U.S. government's official web portal to all federal, state and local government web resources and services.